KEED/EED METAR and TAF weather

Enter ICAO airport designator
Station Type Date Time Source
KEED METAR 2024/06/16 08:56 UTC NOAA

KEED 160856Z AUTO 22005KT 10SM CLR 32/M01 A2961 RMK AO2 SLP986 T03171006 53002


Station Type Date Time Source
KEED Decoded METAR 2024/06/16 08:56 UTC NOAA

NEEDLES AIRPORT, CA, United States (KEED) 34-46N 114-37W
Jun 16, 2024 - 04:56 AM EDT / 2024.06.16 0856 UTC
Wind: from the SW (220 degrees) at 6 MPH (5 KT):0
Visibility: 10 mile(s):0
Sky conditions: clear
Temperature: 89.1 F (31.7 C)
Dew Point: 30.9 F (-0.6 C)
Relative Humidity: 12%
Pressure (altimeter): 29.61 in. Hg (1002 hPa)
Pressure tendency: 0.01 inches (0.2 hPa) higher than three hours ago
ob: KEED 160856Z AUTO 22005KT 10SM CLR 32/M01 A2961 RMK AO2 SLP986 T03171006 53002
cycle: 9

Station Type Date Time Source
KEED TAF 2024/06/16 06:22 UTC NOAA